Time;durP1;ratioP1;P1;durP2;ratioP2;P2;SDS_P1;SDS_P2;PMS_P1;PMS_P2;Temp;Humidity;BMP_temperature;BMP_pressure;BME280_temperature;BME280_humidity;BME280_pressure;Samples;Min_cycle;Max_cycle;Signal;HPM_P1;HPM_P2
2022/02/14 10:03:57;;;;;;;14.03;7.63;;;;;;;;;;6133813;23;20424;-86
2022/02/14 10:06:43;;;;;;;12.18;7.80;;;;;;;;;;6186963;23;20812;-87
2022/02/14 10:09:14;;;;;;;11.48;7.53;;;;;;;;;;6186756;23;20005;-86
2022/02/14 10:11:59;;;;;;;13.80;7.63;;;;;;;;;;6130440;23;20005;-86
2022/02/14 10:14:25;;;;;;;10.77;7.35;;;;;;;;;;6156678;23;20064;-87
2022/02/14 10:17:07;;;;;;;13.10;8.20;;;;;;;;;;6130616;23;20459;-87
2022/02/14 10:19:36;;;;;;;13.23;8.00;;;;;;;;;;6155213;23;20002;-87
2022/02/14 10:22:07;;;;;;;12.07;7.90;;;;;;;;;;6130946;23;20016;-87
2022/02/14 10:24:46;;;;;;;16.33;8.10;;;;;;;;;;6157149;23;19997;-87
2022/02/14 10:27:12;;;;;;;15.52;8.68;;;;;;;;;;6130595;23;20001;-86
2022/02/14 10:29:39;;;;;;;11.32;8.00;;;;;;;;;;6156112;23;20037;-87
2022/02/14 10:32:24;;;;;;;13.80;8.50;;;;;;;;;;6156646;23;20305;-87
2022/02/14 10:34:52;;;;;;;13.52;9.00;;;;;;;;;;6156714;23;20325;-87
2022/02/14 10:37:18;;;;;;;12.18;8.02;;;;;;;;;;6156694;23;20025;-87
2022/02/14 10:39:45;;;;;;;14.07;8.88;;;;;;;;;;6156278;23;20005;-86
2022/02/14 10:42:19;;;;;;;13.75;8.40;;;;;;;;;;6130163;23;20006;-86
2022/02/14 10:47:33;;;;;;;13.15;8.38;;;;;;;;;;6156820;23;20336;-86
2022/02/14 10:50:07;;;;;;;15.38;9.30;;;;;;;;;;6130178;23;20017;-85
2022/02/14 10:52:38;;;;;;;14.40;8.50;;;;;;;;;;6130256;23;20063;-87
2022/02/14 10:55:11;;;;;;;12.35;8.70;;;;;;;;;;6156498;23;20010;-86
2022/02/14 10:57:41;;;;;;;14.50;8.80;;;;;;;;;;6130217;23;20008;-87
2022/02/14 11:00:08;;;;;;;12.40;8.73;;;;;;;;;;6130096;23;20005;-87
2022/02/14 11:02:34;;;;;;;13.68;9.05;;;;;;;;;;6157451;23;20065;-87
2022/02/14 11:05:00;;;;;;;16.08;8.93;;;;;;;;;;6130912;23;20018;-87
2022/02/14 11:07:27;;;;;;;18.25;10.05;;;;;;;;;;6161615;23;20008;-85
2022/02/14 11:09:55;;;;;;;13.77;9.38;;;;;;;;;;6156585;23;20051;-86
2022/02/14 11:12:21;;;;;;;14.38;8.00;;;;;;;;;;6130470;23;20005;-85
2022/02/14 11:14:55;;;;;;;13.90;9.05;;;;;;;;;;6156270;23;20440;-87
2022/02/14 11:17:25;;;;;;;18.15;9.82;;;;;;;;;;6156143;23;20052;-87
2022/02/14 11:19:56;;;;;;;13.02;8.57;;;;;;;;;;6156116;23;20010;-85
2022/02/14 11:22:26;;;;;;;14.45;9.10;;;;;;;;;;6156424;23;20029;-86
2022/02/14 11:25:30;;;;;;;14.23;8.82;;;;;;;;;;6156102;23;20088;-84
2022/02/14 11:28:12;;;;;;;15.02;9.35;;;;;;;;;;6154528;23;20328;-84
2022/02/14 11:30:38;;;;;;;12.88;8.48;;;;;;;;;;6155917;23;19997;-85
2022/02/14 11:33:14;;;;;;;14.25;10.00;;;;;;;;;;6156201;23;20247;-84
2022/02/14 11:35:56;;;;;;;16.13;9.52;;;;;;;;;;6156267;23;20005;-84
2022/02/14 11:38:40;;;;;;;14.02;8.90;;;;;;;;;;6130008;23;20001;-85
2022/02/14 11:41:32;;;;;;;11.80;8.45;;;;;;;;;;6155926;23;20444;-87
2022/02/14 11:44:14;;;;;;;14.38;8.65;;;;;;;;;;6130003;23;20096;-84
2022/02/14 11:46:42;;;;;;;14.00;8.40;;;;;;;;;;6154484;23;20048;-86
2022/02/14 11:49:08;;;;;;;11.02;8.52;;;;;;;;;;6154672;23;20005;-87
2022/02/14 11:52:00;;;;;;;13.70;7.43;;;;;;;;;;6155986;23;20012;-86
2022/02/14 11:54:34;;;;;;;14.50;7.43;;;;;;;;;;6126348;23;20016;-87
2022/02/14 11:57:22;;;;;;;14.95;8.35;;;;;;;;;;6156824;23;20069;-89
2022/02/14 11:59:49;;;;;;;11.93;8.23;;;;;;;;;;6156193;23;20425;-88
2022/02/14 12:02:15;;;;;;;13.80;8.32;;;;;;;;;;6131904;23;20001;-89
2022/02/14 12:04:43;;;;;;;11.18;8.27;;;;;;;;;;6133377;23;20014;-86
2022/02/14 12:07:36;;;;;;;14.48;9.02;;;;;;;;;;6128767;23;20028;-87
2022/02/14 12:10:21;;;;;;;14.50;8.85;;;;;;;;;;6102266;23;20329;-86
2022/02/14 12:12:46;;;;;;;17.08;9.60;;;;;;;;;;6102361;23;20006;-86
2022/02/14 12:20:57;;;;;;;16.25;11.70;;;;;;;;;;6128513;23;20061;-86
2022/02/14 12:23:27;;;;;;;13.77;9.43;;;;;;;;;;6128215;23;20002;-87
2022/02/14 12:25:53;;;;;;;14.02;9.20;;;;;;;;;;6102363;23;20402;-87
2022/02/14 12:28:21;;;;;;;17.98;10.50;;;;;;;;;;6127979;23;19998;-87
2022/02/14 12:30:46;;;;;;;15.85;10.77;;;;;;;;;;6102081;23;20061;-85
2022/02/14 12:33:14;;;;;;;14.50;10.30;;;;;;;;;;6101854;23;20002;-87
2022/02/14 12:35:51;;;;;;;12.85;9.50;;;;;;;;;;6101791;23;20021;-86
2022/02/14 12:38:17;;;;;;;14.90;9.63;;;;;;;;;;6128137;23;20417;-87
2022/02/14 12:41:06;;;;;;;17.80;9.45;;;;;;;;;;6128001;23;19994;-86
2022/02/14 12:43:41;;;;;;;16.23;8.95;;;;;;;;;;6128707;23;20009;-87
2022/02/14 17:34:15;;;;;;;19.70;12.73;;;;;;;;;;6181266;23;20025;-90
2022/02/14 17:36:41;;;;;;;19.05;12.38;;;;;;;;;;6190464;23;20013;-91
2022/02/14 22:39:22;;;;;;;37.65;23.25;;;;;;;;;;6151094;23;20494;-94
